sensor_id;sensor_type;location;lat;lon;timestamp;P1;durP1;ratioP1;P2;durP2;ratioP2
36725;SDS011;44936;52.086;5.150;2024-03-17T00:02:12;5.88;;;1.50;;
36725;SDS011;44936;52.086;5.150;2024-03-17T00:04:37;6.00;;;1.80;;
36725;SDS011;44936;52.086;5.150;2024-03-17T00:07:02;4.05;;;1.77;;
36725;SDS011;44936;52.086;5.150;2024-03-17T00:09:28;6.10;;;1.70;;
36725;SDS011;44936;52.086;5.150;2024-03-17T00:11:54;5.72;;;1.88;;
36725;SDS011;44936;52.086;5.150;2024-03-17T00:14:20;5.30;;;1.73;;
36725;SDS011;44936;52.086;5.150;2024-03-17T00:16:46;4.95;;;2.00;;
36725;SDS011;44936;52.086;5.150;2024-03-17T00:19:13;5.53;;;1.92;;
36725;SDS011;44936;52.086;5.150;2024-03-17T00:21:38;7.93;;;1.92;;
36725;SDS011;44936;52.086;5.150;2024-03-17T00:24:05;5.22;;;1.60;;
36725;SDS011;44936;52.086;5.150;2024-03-17T00:26:31;2.72;;;1.60;;
36725;SDS011;44936;52.086;5.150;2024-03-17T00:28:56;4.13;;;1.80;;
36725;SDS011;44936;52.086;5.150;2024-03-17T00:31:21;7.05;;;1.80;;
36725;SDS011;44936;52.086;5.150;2024-03-17T00:33:48;5.07;;;1.77;;
36725;SDS011;44936;52.086;5.150;2024-03-17T00:36:17;4.85;;;1.50;;
36725;SDS011;44936;52.086;5.150;2024-03-17T00:38:42;5.07;;;2.13;;
36725;SDS011;44936;52.086;5.150;2024-03-17T00:41:07;3.67;;;1.70;;
36725;SDS011;44936;52.086;5.150;2024-03-17T00:43:33;7.53;;;1.98;;
36725;SDS011;44936;52.086;5.150;2024-03-17T00:45:58;8.45;;;2.33;;
36725;SDS011;44936;52.086;5.150;2024-03-17T00:48:23;5.72;;;2.25;;
36725;SDS011;44936;52.086;5.150;2024-03-17T00:50:55;5.80;;;1.80;;
36725;SDS011;44936;52.086;5.150;2024-03-17T00:53:21;7.07;;;2.08;;
36725;SDS011;44936;52.086;5.150;2024-03-17T00:55:50;5.50;;;2.05;;
36725;SDS011;44936;52.086;5.150;2024-03-17T00:58:21;5.93;;;1.80;;
36725;SDS011;44936;52.086;5.150;2024-03-17T01:00:47;4.97;;;1.90;;
36725;SDS011;44936;52.086;5.150;2024-03-17T01:03:13;4.10;;;1.80;;
36725;SDS011;44936;52.086;5.150;2024-03-17T01:05:39;5.45;;;2.00;;
36725;SDS011;44936;52.086;5.150;2024-03-17T01:08:13;5.30;;;2.42;;
36725;SDS011;44936;52.086;5.150;2024-03-17T01:10:39;6.35;;;2.13;;
36725;SDS011;44936;52.086;5.150;2024-03-17T01:13:06;4.35;;;1.95;;
36725;SDS011;44936;52.086;5.150;2024-03-17T01:15:34;6.20;;;2.20;;
36725;SDS011;44936;52.086;5.150;2024-03-17T01:18:00;6.43;;;2.45;;
36725;SDS011;44936;52.086;5.150;2024-03-17T01:20:26;4.03;;;2.20;;
36725;SDS011;44936;52.086;5.150;2024-03-17T01:22:51;7.80;;;2.13;;
36725;SDS011;44936;52.086;5.150;2024-03-17T01:25:17;5.80;;;2.35;;
36725;SDS011;44936;52.086;5.150;2024-03-17T01:27:42;6.65;;;2.50;;
36725;SDS011;44936;52.086;5.150;2024-03-17T01:30:08;4.32;;;2.05;;
36725;SDS011;44936;52.086;5.150;2024-03-17T01:32:35;6.75;;;2.40;;
36725;SDS011;44936;52.086;5.150;2024-03-17T01:35:00;8.77;;;3.47;;
36725;SDS011;44936;52.086;5.150;2024-03-17T01:37:26;4.95;;;2.00;;
36725;SDS011;44936;52.086;5.150;2024-03-17T01:39:51;6.35;;;2.22;;
36725;SDS011;44936;52.086;5.150;2024-03-17T01:42:16;6.90;;;2.42;;
36725;SDS011;44936;52.086;5.150;2024-03-17T01:44:42;6.18;;;2.70;;
36725;SDS011;44936;52.086;5.150;2024-03-17T01:47:07;7.25;;;2.92;;
36725;SDS011;44936;52.086;5.150;2024-03-17T01:49:34;6.20;;;2.40;;
36725;SDS011;44936;52.086;5.150;2024-03-17T01:51:59;6.90;;;2.50;;
36725;SDS011;44936;52.086;5.150;2024-03-17T01:54:25;6.30;;;2.60;;
36725;SDS011;44936;52.086;5.150;2024-03-17T01:56:50;6.30;;;2.63;;
36725;SDS011;44936;52.086;5.150;2024-03-17T01:59:16;6.35;;;2.85;;
36725;SDS011;44936;52.086;5.150;2024-03-17T02:01:41;9.32;;;2.35;;
36725;SDS011;44936;52.086;5.150;2024-03-17T02:04:07;4.03;;;2.25;;
36725;SDS011;44936;52.086;5.150;2024-03-17T02:06:32;6.22;;;2.42;;
36725;SDS011;44936;52.086;5.150;2024-03-17T02:08:58;3.83;;;2.30;;
36725;SDS011;44936;52.086;5.150;2024-03-17T02:11:25;7.55;;;2.75;;
36725;SDS011;44936;52.086;5.150;2024-03-17T02:13:55;7.65;;;2.75;;
36725;SDS011;44936;52.086;5.150;2024-03-17T02:16:21;8.77;;;2.40;;
36725;SDS011;44936;52.086;5.150;2024-03-17T02:18:47;5.22;;;2.38;;
36725;SDS011;44936;52.086;5.150;2024-03-17T02:21:13;8.27;;;2.88;;
36725;SDS011;44936;52.086;5.150;2024-03-17T02:23:39;6.70;;;2.38;;
36725;SDS011;44936;52.086;5.150;2024-03-17T02:26:05;5.30;;;2.47;;
36725;SDS011;44936;52.086;5.150;2024-03-17T02:28:37;7.95;;;2.70;;
36725;SDS011;44936;52.086;5.150;2024-03-17T02:31:04;5.75;;;2.20;;
36725;SDS011;44936;52.086;5.150;2024-03-17T02:33:30;6.00;;;2.40;;
36725;SDS011;44936;52.086;5.150;2024-03-17T02:35:55;7.43;;;2.72;;
36725;SDS011;44936;52.086;5.150;2024-03-17T02:38:20;9.07;;;2.88;;
36725;SDS011;44936;52.086;5.150;2024-03-17T02:41:06;4.43;;;1.95;;
36725;SDS011;44936;52.086;5.150;2024-03-17T02:43:31;8.43;;;3.10;;
36725;SDS011;44936;52.086;5.150;2024-03-17T02:45:56;4.72;;;2.20;;
36725;SDS011;44936;52.086;5.150;2024-03-17T02:48:22;6.55;;;2.58;;
36725;SDS011;44936;52.086;5.150;2024-03-17T02:50:48;11.77;;;2.67;;
36725;SDS011;44936;52.086;5.150;2024-03-17T02:53:13;8.27;;;2.65;;
36725;SDS011;44936;52.086;5.150;2024-03-17T02:55:39;5.07;;;2.55;;
36725;SDS011;44936;52.086;5.150;2024-03-17T02:58:04;7.43;;;2.70;;
36725;SDS011;44936;52.086;5.150;2024-03-17T03:00:29;7.10;;;2.40;;
36725;SDS011;44936;52.086;5.150;2024-03-17T03:02:55;6.22;;;2.92;;
36725;SDS011;44936;52.086;5.150;2024-03-17T03:05:20;6.18;;;2.65;;
36725;SDS011;44936;52.086;5.150;2024-03-17T03:07:45;7.47;;;2.47;;
36725;SDS011;44936;52.086;5.150;2024-03-17T03:10:10;5.00;;;2.40;;
36725;SDS011;44936;52.086;5.150;2024-03-17T03:12:36;5.28;;;2.47;;
36725;SDS011;44936;52.086;5.150;2024-03-17T03:15:01;6.32;;;2.80;;
36725;SDS011;44936;52.086;5.150;2024-03-17T03:17:26;4.50;;;2.13;;
36725;SDS011;44936;52.086;5.150;2024-03-17T03:19:52;6.88;;;2.40;;
36725;SDS011;44936;52.086;5.150;2024-03-17T03:22:17;10.60;;;3.03;;
36725;SDS011;44936;52.086;5.150;2024-03-17T03:24:42;9.27;;;2.40;;
36725;SDS011;44936;52.086;5.150;2024-03-17T03:27:07;6.47;;;2.92;;
36725;SDS011;44936;52.086;5.150;2024-03-17T03:29:33;6.13;;;2.60;;
36725;SDS011;44936;52.086;5.150;2024-03-17T03:31:58;7.15;;;2.63;;
36725;SDS011;44936;52.086;5.150;2024-03-17T03:34:24;6.40;;;2.33;;
36725;SDS011;44936;52.086;5.150;2024-03-17T03:36:49;7.57;;;2.72;;
36725;SDS011;44936;52.086;5.150;2024-03-17T03:39:14;6.38;;;2.45;;
36725;SDS011;44936;52.086;5.150;2024-03-17T03:41:40;8.43;;;2.58;;
36725;SDS011;44936;52.086;5.150;2024-03-17T03:44:06;8.75;;;2.92;;
36725;SDS011;44936;52.086;5.150;2024-03-17T03:46:31;6.63;;;2.88;;
36725;SDS011;44936;52.086;5.150;2024-03-17T03:48:56;7.38;;;2.38;;
36725;SDS011;44936;52.086;5.150;2024-03-17T03:51:22;4.97;;;2.45;;
36725;SDS011;44936;52.086;5.150;2024-03-17T03:53:48;11.40;;;2.78;;
36725;SDS011;44936;52.086;5.150;2024-03-17T03:56:16;9.70;;;3.00;;
36725;SDS011;44936;52.086;5.150;2024-03-17T03:58:41;5.65;;;2.47;;
36725;SDS011;44936;52.086;5.150;2024-03-17T04:01:08;6.97;;;2.53;;
36725;SDS011;44936;52.086;5.150;2024-03-17T04:03:36;6.97;;;2.80;;
36725;SDS011;44936;52.086;5.150;2024-03-17T04:06:02;6.75;;;2.38;;
36725;SDS011;44936;52.086;5.150;2024-03-17T04:08:32;6.18;;;2.83;;
36725;SDS011;44936;52.086;5.150;2024-03-17T04:10:59;6.70;;;2.90;;
36725;SDS011;44936;52.086;5.150;2024-03-17T04:13:26;7.55;;;2.85;;
36725;SDS011;44936;52.086;5.150;2024-03-17T04:15:52;7.32;;;2.47;;
36725;SDS011;44936;52.086;5.150;2024-03-17T04:18:21;5.35;;;2.65;;
36725;SDS011;44936;52.086;5.150;2024-03-17T04:20:47;6.85;;;2.67;;
36725;SDS011;44936;52.086;5.150;2024-03-17T04:23:12;9.55;;;3.40;;
36725;SDS011;44936;52.086;5.150;2024-03-17T04:25:37;6.68;;;3.00;;
36725;SDS011;44936;52.086;5.150;2024-03-17T04:28:04;5.28;;;2.83;;
36725;SDS011;44936;52.086;5.150;2024-03-17T04:30:29;8.25;;;2.83;;
36725;SDS011;44936;52.086;5.150;2024-03-17T04:32:56;6.53;;;2.92;;
36725;SDS011;44936;52.086;5.150;2024-03-17T04:35:21;6.72;;;2.72;;
36725;SDS011;44936;52.086;5.150;2024-03-17T04:37:46;7.47;;;2.58;;
36725;SDS011;44936;52.086;5.150;2024-03-17T04:40:13;7.70;;;2.95;;
36725;SDS011;44936;52.086;5.150;2024-03-17T04:42:38;5.57;;;2.80;;
36725;SDS011;44936;52.086;5.150;2024-03-17T04:45:04;8.80;;;3.22;;
36725;SDS011;44936;52.086;5.150;2024-03-17T04:47:31;6.75;;;2.80;;
36725;SDS011;44936;52.086;5.150;2024-03-17T04:49:56;5.70;;;2.72;;
36725;SDS011;44936;52.086;5.150;2024-03-17T04:52:21;5.47;;;2.28;;
36725;SDS011;44936;52.086;5.150;2024-03-17T04:54:47;8.30;;;2.95;;
36725;SDS011;44936;52.086;5.150;2024-03-17T04:57:12;7.13;;;2.45;;
36725;SDS011;44936;52.086;5.150;2024-03-17T04:59:37;6.90;;;2.75;;
36725;SDS011;44936;52.086;5.150;2024-03-17T05:02:03;7.78;;;3.15;;
36725;SDS011;44936;52.086;5.150;2024-03-17T05:04:29;7.97;;;3.50;;
36725;SDS011;44936;52.086;5.150;2024-03-17T05:06:55;8.98;;;3.42;;
36725;SDS011;44936;52.086;5.150;2024-03-17T05:09:20;7.22;;;2.70;;
36725;SDS011;44936;52.086;5.150;2024-03-17T05:11:47;7.82;;;3.55;;
36725;SDS011;44936;52.086;5.150;2024-03-17T05:14:16;7.10;;;2.92;;
36725;SDS011;44936;52.086;5.150;2024-03-17T05:16:44;7.90;;;3.28;;
36725;SDS011;44936;52.086;5.150;2024-03-17T05:19:09;10.52;;;3.17;;
36725;SDS011;44936;52.086;5.150;2024-03-17T05:21:34;9.40;;;3.25;;
36725;SDS011;44936;52.086;5.150;2024-03-17T05:24:03;8.77;;;3.40;;
36725;SDS011;44936;52.086;5.150;2024-03-17T05:26:28;8.02;;;3.10;;
36725;SDS011;44936;52.086;5.150;2024-03-17T05:28:55;6.68;;;2.97;;
36725;SDS011;44936;52.086;5.150;2024-03-17T05:31:20;9.35;;;3.58;;
36725;SDS011;44936;52.086;5.150;2024-03-17T05:33:47;7.05;;;2.88;;
36725;SDS011;44936;52.086;5.150;2024-03-17T05:36:13;7.45;;;3.13;;
36725;SDS011;44936;52.086;5.150;2024-03-17T05:38:38;11.55;;;3.13;;
36725;SDS011;44936;52.086;5.150;2024-03-17T05:41:07;8.50;;;3.20;;
36725;SDS011;44936;52.086;5.150;2024-03-17T05:43:35;8.10;;;2.80;;
36725;SDS011;44936;52.086;5.150;2024-03-17T05:46:01;7.32;;;2.65;;
36725;SDS011;44936;52.086;5.150;2024-03-17T05:48:28;7.25;;;2.97;;
36725;SDS011;44936;52.086;5.150;2024-03-17T05:50:54;8.73;;;3.40;;
36725;SDS011;44936;52.086;5.150;2024-03-17T05:53:20;12.45;;;3.58;;
36725;SDS011;44936;52.086;5.150;2024-03-17T05:55:46;6.43;;;2.58;;
36725;SDS011;44936;52.086;5.150;2024-03-17T05:58:12;9.98;;;3.28;;
36725;SDS011;44936;52.086;5.150;2024-03-17T06:00:41;6.18;;;2.85;;
36725;SDS011;44936;52.086;5.150;2024-03-17T06:03:06;6.97;;;3.13;;
36725;SDS011;44936;52.086;5.150;2024-03-17T06:05:32;8.88;;;3.03;;
36725;SDS011;44936;52.086;5.150;2024-03-17T06:08:01;9.88;;;3.30;;
36725;SDS011;44936;52.086;5.150;2024-03-17T06:10:28;6.78;;;2.65;;
36725;SDS011;44936;52.086;5.150;2024-03-17T06:12:55;6.53;;;2.90;;
36725;SDS011;44936;52.086;5.150;2024-03-17T06:15:21;5.85;;;2.72;;
36725;SDS011;44936;52.086;5.150;2024-03-17T06:17:48;6.85;;;2.65;;
36725;SDS011;44936;52.086;5.150;2024-03-17T06:20:13;7.05;;;2.65;;
36725;SDS011;44936;52.086;5.150;2024-03-17T06:22:39;10.52;;;3.42;;
36725;SDS011;44936;52.086;5.150;2024-03-17T06:25:05;9.32;;;2.92;;
36725;SDS011;44936;52.086;5.150;2024-03-17T06:27:31;8.63;;;3.70;;
36725;SDS011;44936;52.086;5.150;2024-03-17T06:29:58;8.55;;;2.97;;
36725;SDS011;44936;52.086;5.150;2024-03-17T06:32:25;8.68;;;3.22;;
36725;SDS011;44936;52.086;5.150;2024-03-17T06:34:51;7.05;;;2.97;;
36725;SDS011;44936;52.086;5.150;2024-03-17T06:37:16;6.47;;;3.08;;
36725;SDS011;44936;52.086;5.150;2024-03-17T06:39:42;8.85;;;3.00;;
36725;SDS011;44936;52.086;5.150;2024-03-17T06:42:10;7.60;;;3.15;;
36725;SDS011;44936;52.086;5.150;2024-03-17T06:44:36;9.13;;;3.05;;
36725;SDS011;44936;52.086;5.150;2024-03-17T06:47:02;6.82;;;3.00;;
36725;SDS011;44936;52.086;5.150;2024-03-17T06:49:27;9.02;;;3.10;;
36725;SDS011;44936;52.086;5.150;2024-03-17T06:51:53;7.57;;;2.85;;
36725;SDS011;44936;52.086;5.150;2024-03-17T06:54:18;9.07;;;3.17;;
36725;SDS011;44936;52.086;5.150;2024-03-17T06:56:44;7.88;;;3.13;;
36725;SDS011;44936;52.086;5.150;2024-03-17T06:59:10;7.95;;;3.30;;
36725;SDS011;44936;52.086;5.150;2024-03-17T07:01:35;10.48;;;4.07;;
36725;SDS011;44936;52.086;5.150;2024-03-17T07:04:00;9.70;;;3.53;;
36725;SDS011;44936;52.086;5.150;2024-03-17T07:06:26;7.05;;;3.15;;
36725;SDS011;44936;52.086;5.150;2024-03-17T07:08:52;8.73;;;3.28;;
36725;SDS011;44936;52.086;5.150;2024-03-17T07:11:17;9.15;;;3.40;;
36725;SDS011;44936;52.086;5.150;2024-03-17T07:13:42;6.28;;;3.08;;
36725;SDS011;44936;52.086;5.150;2024-03-17T07:16:08;9.85;;;3.60;;
36725;SDS011;44936;52.086;5.150;2024-03-17T07:18:35;10.50;;;3.58;;
36725;SDS011;44936;52.086;5.150;2024-03-17T07:21:01;6.45;;;3.22;;
36725;SDS011;44936;52.086;5.150;2024-03-17T07:23:29;9.93;;;4.10;;
36725;SDS011;44936;52.086;5.150;2024-03-17T07:25:55;9.30;;;3.95;;
36725;SDS011;44936;52.086;5.150;2024-03-17T07:28:21;10.63;;;3.78;;
36725;SDS011;44936;52.086;5.150;2024-03-17T07:30:51;12.30;;;3.90;;
36725;SDS011;44936;52.086;5.150;2024-03-17T07:33:18;8.57;;;3.83;;
36725;SDS011;44936;52.086;5.150;2024-03-17T07:35:49;7.82;;;3.17;;
36725;SDS011;44936;52.086;5.150;2024-03-17T07:38:15;9.32;;;3.55;;
36725;SDS011;44936;52.086;5.150;2024-03-17T07:40:40;8.32;;;3.63;;
36725;SDS011;44936;52.086;5.150;2024-03-17T07:43:06;8.93;;;3.25;;
36725;SDS011;44936;52.086;5.150;2024-03-17T07:45:31;9.60;;;3.90;;
36725;SDS011;44936;52.086;5.150;2024-03-17T07:47:57;11.60;;;4.05;;
36725;SDS011;44936;52.086;5.150;2024-03-17T07:50:22;10.48;;;3.95;;
36725;SDS011;44936;52.086;5.150;2024-03-17T07:52:48;9.43;;;3.83;;
36725;SDS011;44936;52.086;5.150;2024-03-17T07:55:13;9.83;;;3.63;;
36725;SDS011;44936;52.086;5.150;2024-03-17T07:57:38;9.40;;;4.22;;
36725;SDS011;44936;52.086;5.150;2024-03-17T08:00:04;8.70;;;3.60;;
36725;SDS011;44936;52.086;5.150;2024-03-17T08:02:40;14.13;;;4.32;;
36725;SDS011;44936;52.086;5.150;2024-03-17T08:05:06;8.10;;;3.72;;
36725;SDS011;44936;52.086;5.150;2024-03-17T08:07:31;9.57;;;4.00;;
36725;SDS011;44936;52.086;5.150;2024-03-17T08:09:57;8.27;;;3.65;;
36725;SDS011;44936;52.086;5.150;2024-03-17T08:12:22;10.70;;;4.27;;
36725;SDS011;44936;52.086;5.150;2024-03-17T08:14:47;11.18;;;4.53;;
36725;SDS011;44936;52.086;5.150;2024-03-17T08:17:13;7.90;;;3.88;;
36725;SDS011;44936;52.086;5.150;2024-03-17T08:19:38;10.40;;;4.18;;
36725;SDS011;44936;52.086;5.150;2024-03-17T08:22:04;9.10;;;3.55;;
36725;SDS011;44936;52.086;5.150;2024-03-17T08:24:29;7.60;;;3.00;;
36725;SDS011;44936;52.086;5.150;2024-03-17T08:26:55;7.35;;;3.40;;
36725;SDS011;44936;52.086;5.150;2024-03-17T08:29:21;8.05;;;3.45;;
36725;SDS011;44936;52.086;5.150;2024-03-17T08:31:46;7.65;;;3.38;;
36725;SDS011;44936;52.086;5.150;2024-03-17T08:34:11;8.13;;;3.47;;
36725;SDS011;44936;52.086;5.150;2024-03-17T08:36:37;11.05;;;3.65;;
36725;SDS011;44936;52.086;5.150;2024-03-17T08:39:02;9.52;;;3.92;;
36725;SDS011;44936;52.086;5.150;2024-03-17T08:41:27;7.22;;;3.08;;
36725;SDS011;44936;52.086;5.150;2024-03-17T08:43:55;8.35;;;3.33;;
36725;SDS011;44936;52.086;5.150;2024-03-17T08:46:20;8.43;;;3.53;;
36725;SDS011;44936;52.086;5.150;2024-03-17T08:48:46;6.90;;;3.63;;
36725;SDS011;44936;52.086;5.150;2024-03-17T08:51:11;7.68;;;2.72;;
36725;SDS011;44936;52.086;5.150;2024-03-17T08:53:36;7.05;;;3.60;;
36725;SDS011;44936;52.086;5.150;2024-03-17T08:56:05;7.93;;;3.60;;
36725;SDS011;44936;52.086;5.150;2024-03-17T08:58:33;7.47;;;3.28;;
36725;SDS011;44936;52.086;5.150;2024-03-17T09:00:58;7.28;;;3.40;;
36725;SDS011;44936;52.086;5.150;2024-03-17T09:03:28;6.55;;;3.42;;
36725;SDS011;44936;52.086;5.150;2024-03-17T09:05:53;4.85;;;2.40;;
36725;SDS011;44936;52.086;5.150;2024-03-17T09:08:23;7.07;;;3.10;;
36725;SDS011;44936;52.086;5.150;2024-03-17T09:10:50;7.35;;;3.42;;
36725;SDS011;44936;52.086;5.150;2024-03-17T09:13:21;10.02;;;3.80;;
36725;SDS011;44936;52.086;5.150;2024-03-17T09:15:51;6.60;;;3.33;;
36725;SDS011;44936;52.086;5.150;2024-03-17T09:18:25;8.98;;;3.67;;
36725;SDS011;44936;52.086;5.150;2024-03-17T09:20:57;6.82;;;3.00;;
36725;SDS011;44936;52.086;5.150;2024-03-17T09:23:27;7.28;;;3.70;;
36725;SDS011;44936;52.086;5.150;2024-03-17T09:25:55;6.55;;;2.85;;
36725;SDS011;44936;52.086;5.150;2024-03-17T09:28:24;7.55;;;3.40;;
36725;SDS011;44936;52.086;5.150;2024-03-17T09:30:49;9.02;;;3.22;;
36725;SDS011;44936;52.086;5.150;2024-03-17T09:33:15;8.70;;;3.55;;
36725;SDS011;44936;52.086;5.150;2024-03-17T09:35:40;6.80;;;3.03;;
36725;SDS011;44936;52.086;5.150;2024-03-17T09:38:06;9.25;;;4.20;;
36725;SDS011;44936;52.086;5.150;2024-03-17T09:40:31;6.35;;;3.25;;
36725;SDS011;44936;52.086;5.150;2024-03-17T09:42:57;8.95;;;3.00;;
36725;SDS011;44936;52.086;5.150;2024-03-17T09:45:24;6.28;;;3.00;;
36725;SDS011;44936;52.086;5.150;2024-03-17T09:47:51;6.07;;;3.38;;
36725;SDS011;44936;52.086;5.150;2024-03-17T09:50:16;4.65;;;2.30;;
36725;SDS011;44936;52.086;5.150;2024-03-17T09:52:44;6.45;;;2.85;;
36725;SDS011;44936;52.086;5.150;2024-03-17T09:55:15;7.00;;;3.17;;
36725;SDS011;44936;52.086;5.150;2024-03-17T09:57:42;7.15;;;2.90;;
36725;SDS011;44936;52.086;5.150;2024-03-17T10:00:11;8.57;;;3.60;;
36725;SDS011;44936;52.086;5.150;2024-03-17T10:02:45;8.57;;;2.70;;
36725;SDS011;44936;52.086;5.150;2024-03-17T10:05:21;7.20;;;2.85;;
36725;SDS011;44936;52.086;5.150;2024-03-17T10:07:51;5.93;;;2.50;;
36725;SDS011;44936;52.086;5.150;2024-03-17T10:10:17;6.93;;;3.38;;
36725;SDS011;44936;52.086;5.150;2024-03-17T10:12:43;5.95;;;2.80;;
36725;SDS011;44936;52.086;5.150;2024-03-17T10:15:13;4.00;;;2.47;;
36725;SDS011;44936;52.086;5.150;2024-03-17T10:17:39;6.80;;;2.92;;
36725;SDS011;44936;52.086;5.150;2024-03-17T10:25:29;5.13;;;2.53;;
36725;SDS011;44936;52.086;5.150;2024-03-17T10:27:56;6.18;;;2.80;;
36725;SDS011;44936;52.086;5.150;2024-03-17T10:30:22;8.00;;;2.90;;
36725;SDS011;44936;52.086;5.150;2024-03-17T10:32:53;6.00;;;2.17;;
36725;SDS011;44936;52.086;5.150;2024-03-17T10:35:53;5.13;;;2.60;;
36725;SDS011;44936;52.086;5.150;2024-03-17T10:38:10;5.50;;;2.33;;
36725;SDS011;44936;52.086;5.150;2024-03-17T10:40:37;6.60;;;2.53;;
36725;SDS011;44936;52.086;5.150;2024-03-17T10:43:04;6.25;;;2.70;;
36725;SDS011;44936;52.086;5.150;2024-03-17T10:45:30;6.82;;;2.88;;
36725;SDS011;44936;52.086;5.150;2024-03-17T10:48:01;6.97;;;2.38;;
36725;SDS011;44936;52.086;5.150;2024-03-17T10:50:29;4.97;;;2.40;;
36725;SDS011;44936;52.086;5.150;2024-03-17T10:52:58;6.57;;;2.53;;
36725;SDS011;44936;52.086;5.150;2024-03-17T10:55:27;4.32;;;2.28;;
36725;SDS011;44936;52.086;5.150;2024-03-17T10:57:57;7.55;;;2.80;;
36725;SDS011;44936;52.086;5.150;2024-03-17T11:00:29;6.80;;;2.58;;
36725;SDS011;44936;52.086;5.150;2024-03-17T11:02:55;5.57;;;2.42;;
36725;SDS011;44936;52.086;5.150;2024-03-17T11:05:27;5.05;;;2.63;;
36725;SDS011;44936;52.086;5.150;2024-03-17T11:07:58;5.38;;;2.60;;
36725;SDS011;44936;52.086;5.150;2024-03-17T11:10:35;5.97;;;3.00;;
36725;SDS011;44936;52.086;5.150;2024-03-17T11:13:04;5.55;;;2.50;;
36725;SDS011;44936;52.086;5.150;2024-03-17T11:20:33;7.45;;;3.00;;
36725;SDS011;44936;52.086;5.150;2024-03-17T11:22:59;5.60;;;2.70;;
36725;SDS011;44936;52.086;5.150;2024-03-17T11:27:53;5.77;;;2.40;;
36725;SDS011;44936;52.086;5.150;2024-03-17T11:30:41;7.18;;;2.63;;
36725;SDS011;44936;52.086;5.150;2024-03-17T11:33:51;4.72;;;2.55;;
36725;SDS011;44936;52.086;5.150;2024-03-17T11:38:54;4.45;;;2.65;;
36725;SDS011;44936;52.086;5.150;2024-03-17T11:41:44;5.00;;;2.42;;
36725;SDS011;44936;52.086;5.150;2024-03-17T11:51:50;4.22;;;2.28;;
36725;SDS011;44936;52.086;5.150;2024-03-17T11:54:18;6.75;;;3.10;;
36725;SDS011;44936;52.086;5.150;2024-03-17T11:56:45;7.07;;;3.15;;
36725;SDS011;44936;52.086;5.150;2024-03-17T11:59:11;8.90;;;2.78;;
36725;SDS011;44936;52.086;5.150;2024-03-17T12:01:36;4.97;;;2.65;;
36725;SDS011;44936;52.086;5.150;2024-03-17T12:04:04;5.70;;;2.10;;
36725;SDS011;44936;52.086;5.150;2024-03-17T12:06:31;7.28;;;2.85;;
36725;SDS011;44936;52.086;5.150;2024-03-17T12:11:58;4.82;;;2.55;;
36725;SDS011;44936;52.086;5.150;2024-03-17T12:14:25;5.57;;;2.58;;
36725;SDS011;44936;52.086;5.150;2024-03-17T12:16:51;4.82;;;2.63;;
36725;SDS011;44936;52.086;5.150;2024-03-17T12:19:26;6.40;;;2.40;;
36725;SDS011;44936;52.086;5.150;2024-03-17T12:21:52;5.18;;;2.33;;
36725;SDS011;44936;52.086;5.150;2024-03-17T12:24:23;6.18;;;2.72;;
36725;SDS011;44936;52.086;5.150;2024-03-17T12:26:51;7.00;;;3.08;;
36725;SDS011;44936;52.086;5.150;2024-03-17T12:32:13;7.93;;;3.10;;
36725;SDS011;44936;52.086;5.150;2024-03-17T12:34:44;7.78;;;3.10;;
36725;SDS011;44936;52.086;5.150;2024-03-17T12:37:17;6.47;;;2.55;;
36725;SDS011;44936;52.086;5.150;2024-03-17T12:39:43;6.47;;;3.05;;
36725;SDS011;44936;52.086;5.150;2024-03-17T12:42:10;5.32;;;2.38;;
36725;SDS011;44936;52.086;5.150;2024-03-17T12:44:48;5.78;;;3.08;;
36725;SDS011;44936;52.086;5.150;2024-03-17T12:47:16;8.43;;;2.80;;
36725;SDS011;44936;52.086;5.150;2024-03-17T12:49:46;6.32;;;2.65;;
36725;SDS011;44936;52.086;5.150;2024-03-17T12:52:19;6.32;;;2.75;;
36725;SDS011;44936;52.086;5.150;2024-03-17T12:57:52;6.45;;;2.55;;
36725;SDS011;44936;52.086;5.150;2024-03-17T13:01:02;5.68;;;2.42;;
36725;SDS011;44936;52.086;5.150;2024-03-17T13:03:32;5.32;;;2.70;;
36725;SDS011;44936;52.086;5.150;2024-03-17T13:05:59;5.05;;;2.72;;
36725;SDS011;44936;52.086;5.150;2024-03-17T13:08:25;8.00;;;3.20;;
36725;SDS011;44936;52.086;5.150;2024-03-17T13:10:51;6.88;;;2.55;;
36725;SDS011;44936;52.086;5.150;2024-03-17T13:13:16;5.60;;;3.03;;
36725;SDS011;44936;52.086;5.150;2024-03-17T13:15:42;5.50;;;2.53;;
36725;SDS011;44936;52.086;5.150;2024-03-17T13:18:08;5.47;;;2.50;;
36725;SDS011;44936;52.086;5.150;2024-03-17T13:20:34;7.25;;;2.63;;
36725;SDS011;44936;52.086;5.150;2024-03-17T13:23:00;6.68;;;2.63;;
36725;SDS011;44936;52.086;5.150;2024-03-17T13:25:26;6.72;;;2.67;;
36725;SDS011;44936;52.086;5.150;2024-03-17T13:27:54;7.00;;;2.85;;
36725;SDS011;44936;52.086;5.150;2024-03-17T13:30:20;5.68;;;2.80;;
36725;SDS011;44936;52.086;5.150;2024-03-17T13:32:52;6.47;;;3.03;;
36725;SDS011;44936;52.086;5.150;2024-03-17T13:35:23;8.65;;;2.70;;
36725;SDS011;44936;52.086;5.150;2024-03-17T13:37:50;5.90;;;2.65;;
36725;SDS011;44936;52.086;5.150;2024-03-17T13:40:16;7.30;;;2.28;;
36725;SDS011;44936;52.086;5.150;2024-03-17T13:42:47;4.85;;;2.90;;
36725;SDS011;44936;52.086;5.150;2024-03-17T13:45:17;4.57;;;2.33;;
36725;SDS011;44936;52.086;5.150;2024-03-17T13:47:47;5.03;;;2.65;;
36725;SDS011;44936;52.086;5.150;2024-03-17T13:50:18;6.45;;;2.78;;
36725;SDS011;44936;52.086;5.150;2024-03-17T13:52:44;5.70;;;2.70;;
36725;SDS011;44936;52.086;5.150;2024-03-17T13:55:22;5.82;;;2.60;;
36725;SDS011;44936;52.086;5.150;2024-03-17T13:57:55;4.50;;;2.30;;
36725;SDS011;44936;52.086;5.150;2024-03-17T14:00:22;5.30;;;2.47;;
36725;SDS011;44936;52.086;5.150;2024-03-17T14:02:48;8.10;;;2.83;;
36725;SDS011;44936;52.086;5.150;2024-03-17T14:05:15;5.32;;;2.50;;
36725;SDS011;44936;52.086;5.150;2024-03-17T14:07:42;5.70;;;2.85;;
36725;SDS011;44936;52.086;5.150;2024-03-17T14:10:08;9.93;;;2.97;;
36725;SDS011;44936;52.086;5.150;2024-03-17T14:12:35;5.43;;;2.45;;
36725;SDS011;44936;52.086;5.150;2024-03-17T14:15:00;6.25;;;3.10;;
36725;SDS011;44936;52.086;5.150;2024-03-17T14:17:26;6.60;;;2.95;;
36725;SDS011;44936;52.086;5.150;2024-03-17T14:19:51;5.95;;;2.47;;
36725;SDS011;44936;52.086;5.150;2024-03-17T14:22:17;6.88;;;2.88;;
36725;SDS011;44936;52.086;5.150;2024-03-17T14:24:42;6.75;;;2.50;;
36725;SDS011;44936;52.086;5.150;2024-03-17T14:27:08;6.90;;;3.00;;
36725;SDS011;44936;52.086;5.150;2024-03-17T14:29:37;4.93;;;2.38;;
36725;SDS011;44936;52.086;5.150;2024-03-17T14:32:03;5.32;;;2.38;;
36725;SDS011;44936;52.086;5.150;2024-03-17T14:34:28;10.27;;;2.50;;
36725;SDS011;44936;52.086;5.150;2024-03-17T14:36:59;5.30;;;2.40;;
36725;SDS011;44936;52.086;5.150;2024-03-17T14:39:24;5.38;;;2.75;;
36725;SDS011;44936;52.086;5.150;2024-03-17T14:41:53;7.03;;;2.60;;
36725;SDS011;44936;52.086;5.150;2024-03-17T14:44:19;6.32;;;2.90;;
36725;SDS011;44936;52.086;5.150;2024-03-17T14:46:44;5.80;;;2.33;;
36725;SDS011;44936;52.086;5.150;2024-03-17T14:49:09;5.70;;;2.80;;
36725;SDS011;44936;52.086;5.150;2024-03-17T14:51:34;5.35;;;2.63;;
36725;SDS011;44936;52.086;5.150;2024-03-17T14:54:00;10.95;;;2.78;;
36725;SDS011;44936;52.086;5.150;2024-03-17T14:56:25;10.77;;;3.17;;
36725;SDS011;44936;52.086;5.150;2024-03-17T14:58:51;5.53;;;2.55;;
36725;SDS011;44936;52.086;5.150;2024-03-17T15:01:16;7.00;;;2.88;;
36725;SDS011;44936;52.086;5.150;2024-03-17T15:03:41;5.43;;;2.38;;
36725;SDS011;44936;52.086;5.150;2024-03-17T15:06:08;7.18;;;2.88;;
36725;SDS011;44936;52.086;5.150;2024-03-17T15:08:34;8.15;;;2.75;;
36725;SDS011;44936;52.086;5.150;2024-03-17T15:11:00;5.78;;;2.78;;
36725;SDS011;44936;52.086;5.150;2024-03-17T15:13:25;6.45;;;2.30;;
36725;SDS011;44936;52.086;5.150;2024-03-17T15:15:51;5.57;;;2.35;;
36725;SDS011;44936;52.086;5.150;2024-03-17T15:18:19;5.72;;;2.30;;
36725;SDS011;44936;52.086;5.150;2024-03-17T15:20:50;4.95;;;2.47;;